sensor_id;sensor_type;location;lat;lon;timestamp;pressure;altitude;pressure_sealevel;temperature;humidity
36726;BME280;44936;52.086;5.150;2023-03-22T00:01:43;101487.78;;;9.00;100.00
36726;BME280;44936;52.086;5.150;2023-03-22T00:04:10;101471.91;;;8.91;100.00
36726;BME280;44936;52.086;5.150;2023-03-22T00:06:36;101478.16;;;8.98;100.00
36726;BME280;44936;52.086;5.150;2023-03-22T00:09:01;101472.06;;;8.99;100.00
36726;BME280;44936;52.086;5.150;2023-03-22T00:11:36;101456.16;;;8.88;100.00
36726;BME280;44936;52.086;5.150;2023-03-22T00:14:02;101470.25;;;8.95;100.00
36726;BME280;44936;52.086;5.150;2023-03-22T00:16:27;101449.13;;;8.84;100.00
36726;BME280;44936;52.086;5.150;2023-03-22T00:18:52;101456.19;;;8.91;100.00
36726;BME280;44936;52.086;5.150;2023-03-22T00:21:18;101451.84;;;8.92;100.00
36726;BME280;44936;52.086;5.150;2023-03-22T00:23:44;101451.06;;;8.96;100.00
36726;BME280;44936;52.086;5.150;2023-03-22T00:26:12;101446.69;;;8.95;100.00
36726;BME280;44936;52.086;5.150;2023-03-22T00:28:38;101447.47;;;8.91;100.00
36726;BME280;44936;52.086;5.150;2023-03-22T00:31:04;101441.38;;;8.92;100.00
36726;BME280;44936;52.086;5.150;2023-03-22T00:33:31;101418.47;;;8.78;100.00
36726;BME280;44936;52.086;5.150;2023-03-22T00:36:05;101437.63;;;8.77;100.00
36726;BME280;44936;52.086;5.150;2023-03-22T00:38:31;101441.22;;;8.83;100.00
36726;BME280;44936;52.086;5.150;2023-03-22T00:41:17;101438.56;;;8.81;100.00
36726;BME280;44936;52.086;5.150;2023-03-22T00:43:45;101423.72;;;8.80;100.00
36726;BME280;44936;52.086;5.150;2023-03-22T00:46:16;101429.84;;;8.80;100.00
36726;BME280;44936;52.086;5.150;2023-03-22T00:48:42;101412.31;;;8.75;100.00
36726;BME280;44936;52.086;5.150;2023-03-22T00:51:08;101416.63;;;8.74;100.00
36726;BME280;44936;52.086;5.150;2023-03-22T00:53:35;101408.72;;;8.70;100.00
36726;BME280;44936;52.086;5.150;2023-03-22T00:56:11;101386.78;;;8.63;100.00
36726;BME280;44936;52.086;5.150;2023-03-22T00:58:38;101398.25;;;8.70;100.00
36726;BME280;44936;52.086;5.150;2023-03-22T01:01:04;101404.59;;;8.83;100.00
36726;BME280;44936;52.086;5.150;2023-03-22T01:03:32;101377.22;;;8.65;100.00
36726;BME280;44936;52.086;5.150;2023-03-22T01:05:59;101366.69;;;8.61;100.00
36726;BME280;44936;52.086;5.150;2023-03-22T01:08:24;101366.84;;;8.68;100.00
36726;BME280;44936;52.086;5.150;2023-03-22T01:10:50;101359.09;;;8.74;100.00
36726;BME280;44936;52.086;5.150;2023-03-22T01:13:19;101353.03;;;8.75;100.00
36726;BME280;44936;52.086;5.150;2023-03-22T01:15:49;101353.94;;;8.77;100.00
36726;BME280;44936;52.086;5.150;2023-03-22T01:18:14;101369.00;;;8.91;100.00
36726;BME280;44936;52.086;5.150;2023-03-22T01:20:40;101356.78;;;8.91;100.00
36726;BME280;44936;52.086;5.150;2023-03-22T01:23:05;101347.19;;;8.90;100.00
36726;BME280;44936;52.086;5.150;2023-03-22T01:25:31;101369.00;;;8.91;100.00
36726;BME280;44936;52.086;5.150;2023-03-22T01:27:56;101365.53;;;8.92;100.00
36726;BME280;44936;52.086;5.150;2023-03-22T01:30:22;101341.81;;;8.83;100.00
36726;BME280;44936;52.086;5.150;2023-03-22T01:32:47;101361.31;;;9.00;100.00
36726;BME280;44936;52.086;5.150;2023-03-22T01:35:13;101333.16;;;8.85;100.00
36726;BME280;44936;52.086;5.150;2023-03-22T01:37:38;101334.81;;;8.82;100.00
36726;BME280;44936;52.086;5.150;2023-03-22T01:40:10;101320.09;;;8.85;100.00
36726;BME280;44936;52.086;5.150;2023-03-22T01:42:37;101318.41;;;8.90;100.00
36726;BME280;44936;52.086;5.150;2023-03-22T01:45:16;101322.00;;;8.95;100.00
36726;BME280;44936;52.086;5.150;2023-03-22T01:47:59;101324.75;;;9.03;100.00
36726;BME280;44936;52.086;5.150;2023-03-22T01:50:27;101311.59;;;9.00;100.00
36726;BME280;44936;52.086;5.150;2023-03-22T01:52:54;101309.78;;;8.94;100.00
36726;BME280;44936;52.086;5.150;2023-03-22T01:55:22;101285.22;;;8.86;100.00
36726;BME280;44936;52.086;5.150;2023-03-22T01:57:49;101283.38;;;8.80;100.00
36726;BME280;44936;52.086;5.150;2023-03-22T02:00:15;101305.28;;;8.87;100.00
36726;BME280;44936;52.086;5.150;2023-03-22T02:02:46;101314.16;;;8.97;100.00
36726;BME280;44936;52.086;5.150;2023-03-22T02:05:13;101293.19;;;8.94;100.00
36726;BME280;44936;52.086;5.150;2023-03-22T02:07:41;101294.13;;;8.97;100.00
36726;BME280;44936;52.086;5.150;2023-03-22T02:10:16;101270.28;;;8.80;100.00
36726;BME280;44936;52.086;5.150;2023-03-22T02:12:54;101255.28;;;8.70;100.00
36726;BME280;44936;52.086;5.150;2023-03-22T02:15:34;101270.38;;;8.84;100.00
36726;BME280;44936;52.086;5.150;2023-03-22T02:42:46;101241.75;;;8.93;100.00
36726;BME280;44936;52.086;5.150;2023-03-22T02:45:21;101229.56;;;8.95;100.00
36726;BME280;44936;52.086;5.150;2023-03-22T02:47:55;101219.94;;;8.94;100.00
36726;BME280;44936;52.086;5.150;2023-03-22T02:50:29;101212.03;;;8.91;100.00
36726;BME280;44936;52.086;5.150;2023-03-22T02:53:19;101225.22;;;8.97;100.00
36726;BME280;44936;52.086;5.150;2023-03-22T02:55:54;101208.66;;;8.98;100.00
36726;BME280;44936;52.086;5.150;2023-03-22T02:58:32;101185.81;;;8.85;100.00
36726;BME280;44936;52.086;5.150;2023-03-22T03:01:03;101200.72;;;8.92;100.00
36726;BME280;44936;52.086;5.150;2023-03-22T03:03:30;101174.41;;;8.83;100.00
36726;BME280;44936;52.086;5.150;2023-03-22T03:06:09;101198.06;;;8.90;100.00
36726;BME280;44936;52.086;5.150;2023-03-22T03:08:38;101188.56;;;8.94;100.00
36726;BME280;44936;52.086;5.150;2023-03-22T03:11:04;101198.09;;;8.92;100.00
36726;BME280;44936;52.086;5.150;2023-03-22T03:13:34;101187.56;;;8.87;100.00
36726;BME280;44936;52.086;5.150;2023-03-22T03:15:59;101181.50;;;8.90;100.00
36726;BME280;44936;52.086;5.150;2023-03-22T03:30:12;101161.66;;;9.02;100.00
36726;BME280;44936;52.086;5.150;2023-03-22T03:32:58;101163.41;;;9.05;100.00
36726;BME280;44936;52.086;5.150;2023-03-22T03:35:30;101148.59;;;9.04;100.00
36726;BME280;44936;52.086;5.150;2023-03-22T03:38:13;101148.63;;;9.07;100.00
36726;BME280;44936;52.086;5.150;2023-03-22T03:40:49;101152.13;;;9.09;100.00
36726;BME280;44936;52.086;5.150;2023-03-22T03:43:22;101136.41;;;9.07;100.00
36726;BME280;44936;52.086;5.150;2023-03-22T03:45:51;101128.50;;;9.03;100.00
36726;BME280;44936;52.086;5.150;2023-03-22T03:48:21;101114.44;;;8.95;100.00
36726;BME280;44936;52.086;5.150;2023-03-22T03:50:50;101123.19;;;8.97;100.00
36726;BME280;44936;52.086;5.150;2023-03-22T03:53:19;101129.31;;;8.99;100.00
36726;BME280;44936;52.086;5.150;2023-03-22T03:55:48;101149.63;;;9.17;100.00
36726;BME280;44936;52.086;5.150;2023-03-22T03:58:14;101142.59;;;9.11;100.00
36726;BME280;44936;52.086;5.150;2023-03-22T04:00:46;101154.84;;;9.17;100.00
36726;BME280;44936;52.086;5.150;2023-03-22T04:03:12;101153.97;;;9.15;100.00
36726;BME280;44936;52.086;5.150;2023-03-22T04:05:38;101157.56;;;9.21;100.00
36726;BME280;44936;52.086;5.150;2023-03-22T04:08:09;101158.38;;;9.19;100.00
36726;BME280;44936;52.086;5.150;2023-03-22T04:10:37;101143.56;;;9.19;100.00
36726;BME280;44936;52.086;5.150;2023-03-22T04:13:03;101158.56;;;9.31;100.00
36726;BME280;44936;52.086;5.150;2023-03-22T04:15:28;101149.75;;;9.26;100.00
36726;BME280;44936;52.086;5.150;2023-03-22T04:17:53;101152.41;;;9.29;100.00
36726;BME280;44936;52.086;5.150;2023-03-22T04:20:22;101154.09;;;9.25;100.00
36726;BME280;44936;52.086;5.150;2023-03-22T04:22:50;101127.91;;;9.22;100.00
36726;BME280;44936;52.086;5.150;2023-03-22T04:25:19;101139.16;;;9.18;100.00
36726;BME280;44936;52.086;5.150;2023-03-22T04:27:47;101148.00;;;9.26;100.00
36726;BME280;44936;52.086;5.150;2023-03-22T04:30:16;101133.91;;;9.17;100.00
36726;BME280;44936;52.086;5.150;2023-03-22T04:32:45;101146.34;;;9.31;100.00
36726;BME280;44936;52.086;5.150;2023-03-22T04:35:12;101154.19;;;9.30;100.00
36726;BME280;44936;52.086;5.150;2023-03-22T04:37:37;101143.69;;;9.28;100.00
36726;BME280;44936;52.086;5.150;2023-03-22T04:40:03;101150.69;;;9.29;100.00
36726;BME280;44936;52.086;5.150;2023-03-22T04:42:32;101146.34;;;9.31;100.00
36726;BME280;44936;52.086;5.150;2023-03-22T04:44:58;101150.69;;;9.31;100.00
36726;BME280;44936;52.086;5.150;2023-03-22T04:47:25;101147.22;;;9.33;100.00
36726;BME280;44936;52.086;5.150;2023-03-22T04:49:50;101148.16;;;9.37;100.00
36726;BME280;44936;52.086;5.150;2023-03-22T04:52:15;101141.09;;;9.31;100.00
36726;BME280;44936;52.086;5.150;2023-03-22T04:54:41;101138.47;;;9.31;100.00
36726;BME280;44936;52.086;5.150;2023-03-22T04:57:12;101143.75;;;9.36;100.00
36726;BME280;44936;52.086;5.150;2023-03-22T04:59:38;101145.47;;;9.32;100.00
36726;BME280;44936;52.086;5.150;2023-03-22T05:02:08;101143.72;;;9.31;100.00
36726;BME280;44936;52.086;5.150;2023-03-22T05:04:33;101134.13;;;9.30;100.00
36726;BME280;44936;52.086;5.150;2023-03-22T05:06:58;101118.31;;;9.23;100.00
36726;BME280;44936;52.086;5.150;2023-03-22T05:09:27;101104.44;;;9.30;100.00
36726;BME280;44936;52.086;5.150;2023-03-22T05:11:52;101080.81;;;9.27;100.00
36726;BME280;44936;52.086;5.150;2023-03-22T05:14:18;101065.84;;;9.14;100.00
36726;BME280;44936;52.086;5.150;2023-03-22T05:16:43;101043.88;;;9.01;100.00
36726;BME280;44936;52.086;5.150;2023-03-22T05:19:08;101056.94;;;8.99;100.00
36726;BME280;44936;52.086;5.150;2023-03-22T05:21:40;101087.66;;;9.14;100.00
36726;BME280;44936;52.086;5.150;2023-03-22T05:24:08;101079.81;;;9.14;100.00
36726;BME280;44936;52.086;5.150;2023-03-22T05:26:37;101075.25;;;9.01;100.00
36726;BME280;44936;52.086;5.150;2023-03-22T05:29:10;101095.50;;;9.13;100.00
36726;BME280;44936;52.086;5.150;2023-03-22T05:31:36;101076.09;;;8.97;100.00
36726;BME280;44936;52.086;5.150;2023-03-22T05:34:02;101089.28;;;9.03;100.00
36726;BME280;44936;52.086;5.150;2023-03-22T05:36:27;101101.59;;;9.10;100.00
36726;BME280;44936;52.086;5.150;2023-03-22T05:38:54;101092.75;;;9.02;100.00
36726;BME280;44936;52.086;5.150;2023-03-22T05:41:20;101095.47;;;9.11;100.00
36726;BME280;44936;52.086;5.150;2023-03-22T05:43:46;101098.88;;;9.04;100.00
36726;BME280;44936;52.086;5.150;2023-03-22T05:46:14;101110.25;;;9.09;100.00
36726;BME280;44936;52.086;5.150;2023-03-22T05:48:40;101095.50;;;9.13;100.00
36726;BME280;44936;52.086;5.150;2023-03-22T05:51:07;101102.59;;;9.21;100.00
36726;BME280;44936;52.086;5.150;2023-03-22T05:53:36;101099.97;;;9.23;100.00
36726;BME280;44936;52.086;5.150;2023-03-22T05:56:02;101121.06;;;9.33;100.00
36726;BME280;44936;52.086;5.150;2023-03-22T05:58:29;101123.66;;;9.33;100.00
36726;BME280;44936;52.086;5.150;2023-03-22T06:01:09;101120.06;;;9.25;100.00
36726;BME280;44936;52.086;5.150;2023-03-22T06:03:36;101124.53;;;9.34;100.00
36726;BME280;44936;52.086;5.150;2023-03-22T06:06:03;101117.56;;;9.33;100.00
36726;BME280;44936;52.086;5.150;2023-03-22T06:08:34;101139.38;;;9.33;100.00
36726;BME280;44936;52.086;5.150;2023-03-22T06:10:59;101138.47;;;9.28;100.00
36726;BME280;44936;52.086;5.150;2023-03-22T06:13:24;101140.16;;;9.26;100.00
36726;BME280;44936;52.086;5.150;2023-03-22T06:15:51;101140.25;;;9.32;100.00
36726;BME280;44936;52.086;5.150;2023-03-22T06:18:19;101130.66;;;9.34;100.00
36726;BME280;44936;52.086;5.150;2023-03-22T06:20:44;101134.19;;;9.36;100.00
36726;BME280;44936;52.086;5.150;2023-03-22T06:23:10;101146.50;;;9.45;100.00
36726;BME280;44936;52.086;5.150;2023-03-22T06:25:36;101129.91;;;9.43;100.00
36726;BME280;44936;52.086;5.150;2023-03-22T06:28:01;101143.09;;;9.54;100.00
36726;BME280;44936;52.086;5.150;2023-03-22T06:30:27;101151.06;;;9.61;100.00
36726;BME280;44936;52.086;5.150;2023-03-22T06:32:57;101146.69;;;9.59;100.00
36726;BME280;44936;52.086;5.150;2023-03-22T06:35:26;101099.34;;;9.42;100.00
36726;BME280;44936;52.086;5.150;2023-03-22T06:37:51;101133.66;;;9.65;100.00
36726;BME280;44936;52.086;5.150;2023-03-22T06:40:18;101121.44;;;9.64;100.00
36726;BME280;44936;52.086;5.150;2023-03-22T06:42:43;101133.88;;;9.83;100.00
36726;BME280;44936;52.086;5.150;2023-03-22T06:45:09;101132.19;;;9.91;100.00
36726;BME280;44936;52.086;5.150;2023-03-22T06:47:38;101138.34;;;9.95;100.00
36726;BME280;44936;52.086;5.150;2023-03-22T06:50:04;101145.31;;;9.93;100.00
36726;BME280;44936;52.086;5.150;2023-03-22T06:52:29;101141.03;;;10.03;100.00
36726;BME280;44936;52.086;5.150;2023-03-22T06:54:56;101130.53;;;10.00;100.00
36726;BME280;44936;52.086;5.150;2023-03-22T06:57:32;101138.34;;;9.97;100.00
36726;BME280;44936;52.086;5.150;2023-03-22T06:59:58;101135.78;;;10.01;100.00
36726;BME280;44936;52.086;5.150;2023-03-22T07:02:26;101148.03;;;10.04;100.00
36726;BME280;44936;52.086;5.150;2023-03-22T07:04:52;101144.50;;;9.99;100.00
36726;BME280;44936;52.086;5.150;2023-03-22T07:07:17;101160.28;;;10.05;100.00
36726;BME280;44936;52.086;5.150;2023-03-22T07:09:43;101158.53;;;10.04;100.00
36726;BME280;44936;52.086;5.150;2023-03-22T07:12:08;101149.78;;;10.05;100.00
36726;BME280;44936;52.086;5.150;2023-03-22T07:14:34;101162.00;;;10.03;100.00
36726;BME280;44936;52.086;5.150;2023-03-22T07:16:59;101163.81;;;10.08;100.00
36726;BME280;44936;52.086;5.150;2023-03-22T07:19:25;101163.03;;;10.17;100.00
36726;BME280;44936;52.086;5.150;2023-03-22T07:21:51;101163.00;;;10.15;100.00
36726;BME280;44936;52.086;5.150;2023-03-22T07:24:17;101126.22;;;10.05;100.00
36726;BME280;44936;52.086;5.150;2023-03-22T07:26:42;101164.94;;;10.30;100.00
36726;BME280;44936;52.086;5.150;2023-03-22T07:29:08;101162.28;;;10.27;100.00
36726;BME280;44936;52.086;5.150;2023-03-22T07:31:36;101153.50;;;10.24;100.00
36726;BME280;44936;52.086;5.150;2023-03-22T07:34:04;101136.81;;;10.17;100.00
36726;BME280;44936;52.086;5.150;2023-03-22T07:36:31;101135.97;;;10.21;100.00
36726;BME280;44936;52.086;5.150;2023-03-22T07:38:58;101147.53;;;10.37;100.00
36726;BME280;44936;52.086;5.150;2023-03-22T07:41:24;101143.16;;;10.42;100.00
36726;BME280;44936;52.086;5.150;2023-03-22T07:43:54;101106.19;;;10.14;100.00
36726;BME280;44936;52.086;5.150;2023-03-22T07:46:19;101143.16;;;10.40;100.00
36726;BME280;44936;52.086;5.150;2023-03-22T07:48:44;101122.97;;;10.26;100.00
36726;BME280;44936;52.086;5.150;2023-03-22T07:51:10;101144.91;;;10.41;100.00
36726;BME280;44936;52.086;5.150;2023-03-22T07:53:35;101112.56;;;10.39;100.00
36726;BME280;44936;52.086;5.150;2023-03-22T07:56:02;101138.94;;;10.59;100.00
36726;BME280;44936;52.086;5.150;2023-03-22T07:58:29;101129.31;;;10.60;100.00
36726;BME280;44936;52.086;5.150;2023-03-22T08:00:54;101117.22;;;10.75;100.00
36726;BME280;44936;52.086;5.150;2023-03-22T08:03:20;101118.94;;;10.70;100.00
36726;BME280;44936;52.086;5.150;2023-03-22T08:05:46;101116.31;;;10.73;100.00
36726;BME280;44936;52.086;5.150;2023-03-22T08:08:13;101105.00;;;10.82;100.00
36726;BME280;44936;52.086;5.150;2023-03-22T08:10:39;101101.56;;;10.89;100.00
36726;BME280;44936;52.086;5.150;2023-03-22T08:13:05;101098.06;;;10.90;100.00
36726;BME280;44936;52.086;5.150;2023-03-22T08:15:30;101105.06;;;10.91;100.00
36726;BME280;44936;52.086;5.150;2023-03-22T08:17:56;101098.16;;;11.05;100.00
36726;BME280;44936;52.086;5.150;2023-03-22T08:20:24;101089.38;;;11.00;100.00
36726;BME280;44936;52.086;5.150;2023-03-22T08:22:52;101086.69;;;10.93;100.00
36726;BME280;44936;52.086;5.150;2023-03-22T08:25:18;101081.44;;;10.87;100.00
36726;BME280;44936;52.086;5.150;2023-03-22T08:27:43;101116.44;;;10.93;100.00
36726;BME280;44936;52.086;5.150;2023-03-22T08:30:09;101109.47;;;10.97;100.00
36726;BME280;44936;52.086;5.150;2023-03-22T08:32:35;101119.16;;;11.05;100.00
36726;BME280;44936;52.086;5.150;2023-03-22T08:35:00;101104.28;;;11.09;100.00
36726;BME280;44936;52.086;5.150;2023-03-22T08:37:25;101097.28;;;11.13;100.00
36726;BME280;44936;52.086;5.150;2023-03-22T08:39:51;101117.47;;;11.18;100.00
36726;BME280;44936;52.086;5.150;2023-03-22T08:42:16;101097.28;;;11.10;100.00
36726;BME280;44936;52.086;5.150;2023-03-22T08:44:41;101094.66;;;11.10;100.00
36726;BME280;44936;52.086;5.150;2023-03-22T08:47:07;101093.81;;;11.15;100.00
36726;BME280;44936;52.086;5.150;2023-03-22T08:49:32;101088.56;;;11.20;100.00
36726;BME280;44936;52.086;5.150;2023-03-22T08:51:57;101079.81;;;11.15;100.00
36726;BME280;44936;52.086;5.150;2023-03-22T08:54:23;101102.53;;;11.05;100.00
36726;BME280;44936;52.086;5.150;2023-03-22T08:56:55;101094.66;;;11.05;100.00
36726;BME280;44936;52.086;5.150;2023-03-22T08:59:23;101090.19;;;10.92;100.00
36726;BME280;44936;52.086;5.150;2023-03-22T09:01:48;101100.69;;;10.89;100.00
36726;BME280;44936;52.086;5.150;2023-03-22T09:04:13;101101.56;;;10.89;100.00
36726;BME280;44936;52.086;5.150;2023-03-22T09:06:39;101131.25;;;10.84;100.00
36726;BME280;44936;52.086;5.150;2023-03-22T09:09:07;101126.88;;;10.78;100.00
36726;BME280;44936;52.086;5.150;2023-03-22T09:11:32;101118.06;;;10.71;100.00
36726;BME280;44936;52.086;5.150;2023-03-22T09:13:57;101127.63;;;10.63;100.00
36726;BME280;44936;52.086;5.150;2023-03-22T09:16:23;101136.38;;;10.65;100.00
36726;BME280;44936;52.086;5.150;2023-03-22T09:18:51;101142.50;;;10.69;100.00
36726;BME280;44936;52.086;5.150;2023-03-22T09:21:17;101144.19;;;10.56;100.00
36726;BME280;44936;52.086;5.150;2023-03-22T09:23:42;101157.28;;;10.56;100.00
36726;BME280;44936;52.086;5.150;2023-03-22T09:26:12;101148.50;;;10.49;100.00
36726;BME280;44936;52.086;5.150;2023-03-22T09:28:38;101138.84;;;10.44;100.00
36726;BME280;44936;52.086;5.150;2023-03-22T09:31:07;101131.78;;;10.37;100.00
36726;BME280;44936;52.086;5.150;2023-03-22T09:33:35;101138.06;;;10.54;100.00
36726;BME280;44936;52.086;5.150;2023-03-22T09:36:00;101116.06;;;10.41;100.00
36726;BME280;44936;52.086;5.150;2023-03-22T09:38:26;101118.63;;;10.32;100.00
36726;BME280;44936;52.086;5.150;2023-03-22T09:40:58;101124.84;;;10.43;100.00
36726;BME280;44936;52.086;5.150;2023-03-22T09:43:32;101128.38;;;10.45;100.00
36726;BME280;44936;52.086;5.150;2023-03-22T09:46:01;101126.56;;;10.41;100.00
36726;BME280;44936;52.086;5.150;2023-03-22T09:48:34;101118.66;;;10.35;100.00
36726;BME280;44936;52.086;5.150;2023-03-22T09:51:05;101112.56;;;10.39;100.00
36726;BME280;44936;52.086;5.150;2023-03-22T09:53:34;101103.81;;;10.34;100.00
36726;BME280;44936;52.086;5.150;2023-03-22T09:56:21;101128.31;;;10.41;100.00
36726;BME280;44936;52.086;5.150;2023-03-22T10:04:36;101117.06;;;10.53;100.00
36726;BME280;44936;52.086;5.150;2023-03-22T10:12:22;101092.44;;;10.35;100.00
36726;BME280;44936;52.086;5.150;2023-03-22T10:15:12;101105.63;;;10.46;100.00
36726;BME280;44936;52.086;5.150;2023-03-22T10:17:43;101110.06;;;10.55;100.00
36726;BME280;44936;52.086;5.150;2023-03-22T10:20:26;101112.66;;;10.50;100.00
36726;BME280;44936;52.086;5.150;2023-03-22T10:22:59;101124.06;;;10.55;100.00
36726;BME280;44936;52.086;5.150;2023-03-22T10:25:34;101110.94;;;10.52;100.00
36726;BME280;44936;52.086;5.150;2023-03-22T10:28:01;101121.44;;;10.57;100.00
36726;BME280;44936;52.086;5.150;2023-03-22T10:30:29;101111.81;;;10.56;100.00
36726;BME280;44936;52.086;5.150;2023-03-22T10:33:13;101080.22;;;10.37;100.00
36726;BME280;44936;52.086;5.150;2023-03-22T10:35:46;101100.44;;;10.52;100.00
36726;BME280;44936;52.086;5.150;2023-03-22T10:38:22;101107.38;;;10.44;100.00
36726;BME280;44936;52.086;5.150;2023-03-22T10:40:56;101114.44;;;10.53;100.00
36726;BME280;44936;52.086;5.150;2023-03-22T10:43:35;101106.59;;;10.59;100.00
36726;BME280;44936;52.086;5.150;2023-03-22T10:46:05;101102.28;;;10.64;100.00
36726;BME280;44936;52.086;5.150;2023-03-22T10:48:36;101097.84;;;10.54;100.00
36726;BME280;44936;52.086;5.150;2023-03-22T10:51:04;101101.41;;;10.65;100.00
36726;BME280;44936;52.086;5.150;2023-03-22T10:53:40;101096.19;;;10.71;100.00
36726;BME280;44936;52.086;5.150;2023-03-22T10:56:15;101087.47;;;10.70;100.00
36726;BME280;44936;52.086;5.150;2023-03-22T10:58:51;101087.50;;;10.78;100.00
36726;BME280;44936;52.086;5.150;2023-03-22T11:01:34;101099.75;;;10.79;100.00
36726;BME280;44936;52.086;5.150;2023-03-22T11:04:06;101097.13;;;10.84;100.00
36726;BME280;44936;52.086;5.150;2023-03-22T11:06:37;101095.38;;;10.78;100.00
36726;BME280;44936;52.086;5.150;2023-03-22T11:09:17;101108.56;;;10.90;100.00
36726;BME280;44936;52.086;5.150;2023-03-22T11:11:53;101076.97;;;10.75;100.00
36726;BME280;44936;52.086;5.150;2023-03-22T11:14:36;101069.97;;;10.71;100.00
36726;BME280;44936;52.086;5.150;2023-03-22T11:17:07;101098.97;;;10.97;100.00
36726;BME280;44936;52.086;5.150;2023-03-22T11:19:36;101090.19;;;10.93;100.00
36726;BME280;44936;52.086;5.150;2023-03-22T11:22:25;101100.78;;;11.09;100.00
36726;BME280;44936;52.086;5.150;2023-03-22T11:24:56;101091.16;;;11.07;100.00
36726;BME280;44936;52.086;5.150;2023-03-22T11:27:27;101113.03;;;11.11;100.00
36726;BME280;44936;52.086;5.150;2023-03-22T11:30:19;101084.16;;;11.10;100.00
36726;BME280;44936;52.086;5.150;2023-03-22T11:32:46;101120.13;;;11.23;100.00
36726;BME280;44936;52.086;5.150;2023-03-22T11:35:24;101100.81;;;11.16;100.00
36726;BME280;44936;52.086;5.150;2023-03-22T11:37:54;101097.31;;;11.14;100.00
36726;BME280;44936;52.086;5.150;2023-03-22T11:40:31;101119.22;;;11.21;100.00
36726;BME280;44936;52.086;5.150;2023-03-22T11:43:19;101108.69;;;11.15;100.00
36726;BME280;44936;52.086;5.150;2023-03-22T11:45:49;101116.50;;;11.02;100.00
36726;BME280;44936;52.086;5.150;2023-03-22T11:48:21;101141.97;;;11.19;100.00
36726;BME280;44936;52.086;5.150;2023-03-22T11:50:48;101129.69;;;11.15;100.00
36726;BME280;44936;52.086;5.150;2023-03-22T11:53:22;101140.16;;;11.09;100.00
36726;BME280;44936;52.086;5.150;2023-03-22T11:55:54;101141.88;;;11.03;100.00
36726;BME280;44936;52.086;5.150;2023-03-22T11:58:28;101146.25;;;11.03;100.00
36726;BME280;44936;52.086;5.150;2023-03-22T12:00:58;101148.88;;;11.01;100.00
36726;BME280;44936;52.086;5.150;2023-03-22T12:03:32;101147.97;;;10.99;100.00
36726;BME280;44936;52.086;5.150;2023-03-22T12:06:01;101140.06;;;10.95;100.00
36726;BME280;44936;52.086;5.150;2023-03-22T12:08:48;101127.75;;;10.86;100.00
36726;BME280;44936;52.086;5.150;2023-03-22T12:11:51;101124.25;;;10.81;100.00
36726;BME280;44936;52.086;5.150;2023-03-22T12:14:39;101121.69;;;10.95;100.00
36726;BME280;44936;52.086;5.150;2023-03-22T12:20:04;101130.47;;;10.97;100.00
36726;BME280;44936;52.086;5.150;2023-03-22T12:22:41;101125.22;;;10.97;100.00
36726;BME280;44936;52.086;5.150;2023-03-22T12:25:19;101113.81;;;10.92;100.00
36726;BME280;44936;52.086;5.150;2023-03-22T12:27:50;101119.06;;;10.87;100.00
36726;BME280;44936;52.086;5.150;2023-03-22T12:31:04;101119.97;;;10.97;100.00
36726;BME280;44936;52.086;5.150;2023-03-22T12:33:34;101125.19;;;10.95;100.00
36726;BME280;44936;52.086;5.150;2023-03-22T12:36:05;101117.34;;;10.98;100.00
36726;BME280;44936;52.086;5.150;2023-03-22T12:38:57;101102.44;;;10.88;100.00
36726;BME280;44936;52.086;5.150;2023-03-22T12:41:31;101102.44;;;10.88;100.00
36726;BME280;44936;52.086;5.150;2023-03-22T12:44:25;101105.13;;;11.03;100.00
36726;BME280;44936;52.086;5.150;2023-03-22T12:47:03;101106.91;;;11.07;100.00
36726;BME280;44936;52.086;5.150;2023-03-22T12:49:35;101098.16;;;11.09;100.00
36726;BME280;44936;52.086;5.150;2023-03-22T12:52:14;101096.41;;;11.04;100.00
36726;BME280;44936;52.086;5.150;2023-03-22T12:54:43;101069.16;;;10.83;100.00
36726;BME280;44936;52.086;5.150;2023-03-22T12:57:13;101101.66;;;11.04;100.00
36726;BME280;44936;52.086;5.150;2023-03-22T12:59:42;101110.41;;;11.06;100.00
36726;BME280;44936;52.086;5.150;2023-03-22T13:09:44;101110.41;;;11.08;100.00
36726;BME280;44936;52.086;5.150;2023-03-22T13:17:42;101113.06;;;11.14;100.00
36726;BME280;44936;52.086;5.150;2023-03-22T13:32:53;101109.63;;;11.23;100.00
36726;BME280;44936;52.086;5.150;2023-03-22T13:35:32;101105.25;;;11.25;100.00
36726;BME280;44936;52.086;5.150;2023-03-22T13:38:28;101108.75;;;11.30;100.00
36726;BME280;44936;52.086;5.150;2023-03-22T13:43:35;101100.03;;;11.31;100.00
36726;BME280;44936;52.086;5.150;2023-03-22T13:48:52;101088.69;;;11.43;100.00
36726;BME280;44936;52.086;5.150;2023-03-22T13:59:12;101089.56;;;11.45;100.00
36726;BME280;44936;52.086;5.150;2023-03-22T14:01:42;101078.19;;;11.43;100.00
36726;BME280;44936;52.086;5.150;2023-03-22T14:06:58;101084.31;;;11.46;100.00
36726;BME280;44936;52.086;5.150;2023-03-22T14:10:11;101082.59;;;11.51;100.00
36726;BME280;44936;52.086;5.150;2023-03-22T14:12:31;101068.53;;;11.43;100.00
36726;BME280;44936;52.086;5.150;2023-03-22T14:15:03;101072.06;;;11.51;100.00
36726;BME280;44936;52.086;5.150;2023-03-22T14:20:06;101042.28;;;11.57;100.00
36726;BME280;44936;52.086;5.150;2023-03-22T14:22:38;101046.72;;;11.58;100.00
36726;BME280;44936;52.086;5.150;2023-03-22T14:25:06;101031.78;;;11.55;100.00
36726;BME280;44936;52.086;5.150;2023-03-22T14:27:34;101038.78;;;11.56;100.00
36726;BME280;44936;52.086;5.150;2023-03-22T14:30:01;101027.41;;;11.56;100.00
36726;BME280;44936;52.086;5.150;2023-03-22T14:32:28;101041.44;;;11.59;100.00
36726;BME280;44936;52.086;5.150;2023-03-22T14:35:17;101010.75;;;11.35;100.00